sensor_id;sensor_type;location;lat;lon;timestamp;pressure;altitude;pressure_sealevel;temperature;humidity
18533;BME280;9396;51.510;11.934;2023-04-03T00:00:36;101874.19;;;2.90;89.86
18533;BME280;9396;51.510;11.934;2023-04-03T00:03:03;101871.13;;;2.99;89.69
18533;BME280;9396;51.510;11.934;2023-04-03T00:05:29;101870.16;;;3.20;89.37
18533;BME280;9396;51.510;11.934;2023-04-03T00:07:56;101870.16;;;3.20;89.43
18533;BME280;9396;51.510;11.934;2023-04-03T00:10:24;101873.34;;;3.26;88.94
18533;BME280;9396;51.510;11.934;2023-04-03T00:12:51;101877.94;;;3.40;88.95
18533;BME280;9396;51.510;11.934;2023-04-03T00:15:18;101871.53;;;3.46;88.32
18533;BME280;9396;51.510;11.934;2023-04-03T00:17:44;101876.03;;;3.44;88.46
18533;BME280;9396;51.510;11.934;2023-04-03T00:20:11;101868.34;;;3.39;88.47
18533;BME280;9396;51.510;11.934;2023-04-03T00:22:37;101876.66;;;2.93;88.89
18533;BME280;9396;51.510;11.934;2023-04-03T00:25:05;101872.41;;;3.09;89.60
18533;BME280;9396;51.510;11.934;2023-04-03T00:27:33;101871.84;;;3.21;90.37
18533;BME280;9396;51.510;11.934;2023-04-03T00:30:02;101886.06;;;3.36;89.57
18533;BME280;9396;51.510;11.934;2023-04-03T00:32:28;101884.13;;;3.39;89.05
18533;BME280;9396;51.510;11.934;2023-04-03T00:34:55;101882.38;;;3.40;88.77
18533;BME280;9396;51.510;11.934;2023-04-03T00:37:22;101887.03;;;3.52;88.89
18533;BME280;9396;51.510;11.934;2023-04-03T00:39:48;101884.34;;;3.53;89.34
18533;BME280;9396;51.510;11.934;2023-04-03T00:42:15;101884.63;;;3.47;88.17
18533;BME280;9396;51.510;11.934;2023-04-03T00:47:47;101892.50;;;3.10;89.13
18533;BME280;9396;51.510;11.934;2023-04-03T00:50:14;101897.38;;;2.80;89.49
18533;BME280;9396;51.510;11.934;2023-04-03T00:52:41;101889.81;;;2.93;89.00
18533;BME280;9396;51.510;11.934;2023-04-03T00:55:08;101890.63;;;2.75;89.78
18533;BME280;9396;51.510;11.934;2023-04-03T00:57:36;101882.13;;;2.88;90.34
18533;BME280;9396;51.510;11.934;2023-04-03T01:00:06;101883.84;;;3.08;89.85
18533;BME280;9396;51.510;11.934;2023-04-03T01:02:35;101889.31;;;2.65;89.02
18533;BME280;9396;51.510;11.934;2023-04-03T01:05:04;101887.53;;;2.65;89.39
18533;BME280;9396;51.510;11.934;2023-04-03T01:07:31;101888.28;;;2.69;90.04
18533;BME280;9396;51.510;11.934;2023-04-03T01:10:01;101897.06;;;2.28;89.99
18533;BME280;9396;51.510;11.934;2023-04-03T01:12:31;101891.44;;;2.37;90.58
18533;BME280;9396;51.510;11.934;2023-04-03T01:15:00;101893.75;;;2.22;91.26
18533;BME280;9396;51.510;11.934;2023-04-03T01:17:29;101894.72;;;2.42;90.88
18533;BME280;9396;51.510;11.934;2023-04-03T01:20:17;101894.81;;;2.39;90.91
18533;BME280;9396;51.510;11.934;2023-04-03T01:22:54;101880.59;;;2.44;90.28
18533;BME280;9396;51.510;11.934;2023-04-03T01:25:22;101820.81;;;2.10;90.52
18533;BME280;9396;51.510;11.934;2023-04-03T01:27:49;101890.69;;;2.53;90.87
18533;BME280;9396;51.510;11.934;2023-04-03T01:30:18;101893.72;;;2.44;90.22
18533;BME280;9396;51.510;11.934;2023-04-03T01:32:47;101898.28;;;2.19;91.07
18533;BME280;9396;51.510;11.934;2023-04-03T01:35:13;101888.81;;;2.37;90.60
18533;BME280;9396;51.510;11.934;2023-04-03T01:37:40;101903.97;;;2.50;90.09
18533;BME280;9396;51.510;11.934;2023-04-03T01:40:08;101896.34;;;2.64;89.50
18533;BME280;9396;51.510;11.934;2023-04-03T01:42:34;101894.81;;;2.79;89.71
18533;BME280;9396;51.510;11.934;2023-04-03T01:45:01;101901.91;;;2.77;89.32
18533;BME280;9396;51.510;11.934;2023-04-03T01:47:28;101909.53;;;2.63;89.29
18533;BME280;9396;51.510;11.934;2023-04-03T01:49:56;101911.56;;;2.36;88.93
18533;BME280;9396;51.510;11.934;2023-04-03T01:52:22;101903.00;;;2.53;90.53
18533;BME280;9396;51.510;11.934;2023-04-03T01:54:49;101916.50;;;2.44;89.44
18533;BME280;9396;51.510;11.934;2023-04-03T01:57:16;101925.03;;;2.07;89.54
18533;BME280;9396;51.510;11.934;2023-04-03T01:59:43;101925.31;;;2.21;90.13
18533;BME280;9396;51.510;11.934;2023-04-03T02:02:09;101933.78;;;2.49;89.60
18533;BME280;9396;51.510;11.934;2023-04-03T02:04:37;101926.88;;;2.47;89.48
18533;BME280;9396;51.510;11.934;2023-04-03T02:07:06;101934.38;;;2.56;89.77
18533;BME280;9396;51.510;11.934;2023-04-03T02:09:32;101932.44;;;2.39;89.11
18533;BME280;9396;51.510;11.934;2023-04-03T02:11:59;101934.09;;;2.42;89.91
18533;BME280;9396;51.510;11.934;2023-04-03T02:14:26;101938.03;;;2.52;90.38
18533;BME280;9396;51.510;11.934;2023-04-03T02:16:52;101944.72;;;2.59;90.38
18533;BME280;9396;51.510;11.934;2023-04-03T02:19:19;101938.09;;;2.50;90.17
18533;BME280;9396;51.510;11.934;2023-04-03T02:21:46;101943.34;;;2.50;91.20
18533;BME280;9396;51.510;11.934;2023-04-03T02:24:14;101941.19;;;2.60;90.39
18533;BME280;9396;51.510;11.934;2023-04-03T02:26:40;101945.72;;;2.56;90.29
18533;BME280;9396;51.510;11.934;2023-04-03T02:29:07;101949.09;;;2.60;90.20
18533;BME280;9396;51.510;11.934;2023-04-03T02:31:33;101953.53;;;2.58;90.08
18533;BME280;9396;51.510;11.934;2023-04-03T02:34:00;101951.81;;;2.57;89.70
18533;BME280;9396;51.510;11.934;2023-04-03T02:36:27;101952.56;;;2.18;90.21
18533;BME280;9396;51.510;11.934;2023-04-03T02:38:53;101956.22;;;2.36;90.33
18533;BME280;9396;51.510;11.934;2023-04-03T02:41:21;101965.94;;;2.54;90.29
18533;BME280;9396;51.510;11.934;2023-04-03T02:43:50;101959.56;;;2.40;89.08
18533;BME280;9396;51.510;11.934;2023-04-03T02:46:17;101962.53;;;2.52;89.48
18533;BME280;9396;51.510;11.934;2023-04-03T02:48:43;101965.41;;;2.46;89.46
18533;BME280;9396;51.510;11.934;2023-04-03T02:51:10;101964.41;;;2.29;89.90
18533;BME280;9396;51.510;11.934;2023-04-03T02:53:37;101973.13;;;2.29;89.63
18533;BME280;9396;51.510;11.934;2023-04-03T02:56:03;101973.72;;;2.36;89.46
18533;BME280;9396;51.510;11.934;2023-04-03T02:58:32;101973.47;;;2.42;90.29
18533;BME280;9396;51.510;11.934;2023-04-03T03:00:59;101971.31;;;2.31;90.92
18533;BME280;9396;51.510;11.934;2023-04-03T03:03:26;101976.19;;;2.18;90.18
18533;BME280;9396;51.510;11.934;2023-04-03T03:06:01;101973.81;;;2.12;90.67
18533;BME280;9396;51.510;11.934;2023-04-03T03:08:27;101979.06;;;2.12;90.68
18533;BME280;9396;51.510;11.934;2023-04-03T03:10:54;101974.34;;;1.77;90.86
18533;BME280;9396;51.510;11.934;2023-04-03T03:13:21;101967.66;;;1.92;90.04
18533;BME280;9396;51.510;11.934;2023-04-03T03:15:49;101974.19;;;1.59;91.37
18533;BME280;9396;51.510;11.934;2023-04-03T03:18:15;101977.09;;;1.74;91.69
18533;BME280;9396;51.510;11.934;2023-04-03T03:20:42;101973.88;;;1.89;90.91
18533;BME280;9396;51.510;11.934;2023-04-03T03:23:09;101971.19;;;2.12;90.38
18533;BME280;9396;51.510;11.934;2023-04-03T03:25:37;101974.44;;;1.97;90.38
18533;BME280;9396;51.510;11.934;2023-04-03T03:28:04;101986.09;;;1.90;89.88
18533;BME280;9396;51.510;11.934;2023-04-03T03:30:31;101975.09;;;2.02;91.15
18533;BME280;9396;51.510;11.934;2023-04-03T03:32:59;101983.13;;;2.19;90.63
18533;BME280;9396;51.510;11.934;2023-04-03T03:35:26;101974.53;;;2.16;90.15
18533;BME280;9396;51.510;11.934;2023-04-03T03:37:52;101980.88;;;2.10;90.41
18533;BME280;9396;51.510;11.934;2023-04-03T03:40:19;101987.44;;;1.56;89.94
18533;BME280;9396;51.510;11.934;2023-04-03T03:42:45;101993.16;;;1.88;90.26
18533;BME280;9396;51.510;11.934;2023-04-03T03:45:12;101987.34;;;2.02;90.38
18533;BME280;9396;51.510;11.934;2023-04-03T03:47:39;101987.56;;;1.97;89.57
18533;BME280;9396;51.510;11.934;2023-04-03T03:50:08;101989.41;;;1.72;90.67
18533;BME280;9396;51.510;11.934;2023-04-03T03:52:35;101993.16;;;1.88;90.02
18533;BME280;9396;51.510;11.934;2023-04-03T03:55:02;101990.28;;;1.94;90.38
18533;BME280;9396;51.510;11.934;2023-04-03T03:57:29;101995.63;;;1.70;90.04
18533;BME280;9396;51.510;11.934;2023-04-03T03:59:55;101990.53;;;1.88;91.36
18533;BME280;9396;51.510;11.934;2023-04-03T04:02:22;102000.06;;;1.22;91.16
18533;BME280;9396;51.510;11.934;2023-04-03T04:04:48;101996.16;;;1.33;92.55
18533;BME280;9396;51.510;11.934;2023-04-03T04:07:16;101995.16;;;1.59;91.45
18533;BME280;9396;51.510;11.934;2023-04-03T04:09:43;101986.69;;;1.52;91.81
18533;BME280;9396;51.510;11.934;2023-04-03T04:12:10;102010.16;;;1.55;92.52
18533;BME280;9396;51.510;11.934;2023-04-03T04:14:36;102009.28;;;1.08;91.17
18533;BME280;9396;51.510;11.934;2023-04-03T04:17:03;101999.13;;;1.47;92.72
18533;BME280;9396;51.510;11.934;2023-04-03T04:19:29;102006.78;;;1.29;91.77
18533;BME280;9396;51.510;11.934;2023-04-03T04:21:56;102013.44;;;1.37;92.66
18533;BME280;9396;51.510;11.934;2023-04-03T04:24:24;102014.50;;;1.33;92.46
18533;BME280;9396;51.510;11.934;2023-04-03T04:26:51;102016.53;;;1.25;91.84
18533;BME280;9396;51.510;11.934;2023-04-03T04:29:17;102019.16;;;1.48;92.91
18533;BME280;9396;51.510;11.934;2023-04-03T04:31:44;102016.06;;;1.62;91.50
18533;BME280;9396;51.510;11.934;2023-04-03T04:34:10;102013.47;;;1.60;91.98
18533;BME280;9396;51.510;11.934;2023-04-03T04:36:38;102019.97;;;1.50;91.55
18533;BME280;9396;51.510;11.934;2023-04-03T04:39:05;102024.06;;;1.34;91.97
18533;BME280;9396;51.510;11.934;2023-04-03T04:41:33;102023.56;;;1.48;91.68
18533;BME280;9396;51.510;11.934;2023-04-03T04:44:00;102026.41;;;1.65;91.07
18533;BME280;9396;51.510;11.934;2023-04-03T04:46:27;102029.91;;;1.65;90.72
18533;BME280;9396;51.510;11.934;2023-04-03T04:48:53;102032.50;;;1.42;90.38
18533;BME280;9396;51.510;11.934;2023-04-03T04:51:20;102036.41;;;1.31;91.84
18533;BME280;9396;51.510;11.934;2023-04-03T04:53:46;102038.66;;;1.41;90.82
18533;BME280;9396;51.510;11.934;2023-04-03T04:56:13;102032.81;;;1.58;91.09
18533;BME280;9396;51.510;11.934;2023-04-03T04:58:41;102037.13;;;1.59;90.20
18533;BME280;9396;51.510;11.934;2023-04-03T05:01:10;101975.88;;;1.38;90.24
18533;BME280;9396;51.510;11.934;2023-04-03T05:03:36;102030.88;;;1.15;90.96
18533;BME280;9396;51.510;11.934;2023-04-03T05:06:03;102022.53;;;0.79;90.98
18533;BME280;9396;51.510;11.934;2023-04-03T05:08:30;102037.34;;;1.30;92.19
18533;BME280;9396;51.510;11.934;2023-04-03T05:10:57;102040.28;;;1.21;90.96
18533;BME280;9396;51.510;11.934;2023-04-03T05:13:24;102050.97;;;1.15;90.38
18533;BME280;9396;51.510;11.934;2023-04-03T05:15:52;102048.41;;;1.13;90.53
18533;BME280;9396;51.510;11.934;2023-04-03T05:18:18;102053.78;;;1.10;90.59
18533;BME280;9396;51.510;11.934;2023-04-03T05:20:45;102055.25;;;1.17;91.15
18533;BME280;9396;51.510;11.934;2023-04-03T05:23:14;102048.34;;;1.39;90.88
18533;BME280;9396;51.510;11.934;2023-04-03T05:25:41;102052.28;;;1.51;89.58
18533;BME280;9396;51.510;11.934;2023-04-03T05:28:09;102055.44;;;1.36;90.16
18533;BME280;9396;51.510;11.934;2023-04-03T05:30:35;102058.41;;;1.51;89.02
18533;BME280;9396;51.510;11.934;2023-04-03T05:33:03;102061.88;;;1.27;90.65
18533;BME280;9396;51.510;11.934;2023-04-03T05:35:31;102064.31;;;1.33;90.59
18533;BME280;9396;51.510;11.934;2023-04-03T05:37:58;102061.19;;;1.22;89.97
18533;BME280;9396;51.510;11.934;2023-04-03T05:40:25;102064.25;;;1.35;90.97
18533;BME280;9396;51.510;11.934;2023-04-03T05:42:51;102063.63;;;1.28;90.57
18533;BME280;9396;51.510;11.934;2023-04-03T05:45:18;102066.25;;;1.27;91.17
18533;BME280;9396;51.510;11.934;2023-04-03T05:47:45;102078.03;;;1.15;90.91
18533;BME280;9396;51.510;11.934;2023-04-03T05:50:14;102069.09;;;0.96;91.95
18533;BME280;9396;51.510;11.934;2023-04-03T05:52:43;102073.13;;;1.06;92.03
18533;BME280;9396;51.510;11.934;2023-04-03T05:55:10;102077.34;;;0.84;92.85
18533;BME280;9396;51.510;11.934;2023-04-03T05:57:37;102080.72;;;1.38;92.68
18533;BME280;9396;51.510;11.934;2023-04-03T06:00:05;102059.28;;;2.83;90.58
18533;BME280;9396;51.510;11.934;2023-04-03T06:02:31;102065.53;;;4.52;83.08
18533;BME280;9396;51.510;11.934;2023-04-03T06:04:58;102052.72;;;7.46;77.37
18533;BME280;9396;51.510;11.934;2023-04-03T06:07:26;102054.53;;;8.43;70.26
18533;BME280;9396;51.510;11.934;2023-04-03T06:09:54;102045.03;;;10.18;66.70
18533;BME280;9396;51.510;11.934;2023-04-03T06:12:22;102043.16;;;11.02;62.69
18533;BME280;9396;51.510;11.934;2023-04-03T06:14:48;102046.72;;;11.46;60.88
18533;BME280;9396;51.510;11.934;2023-04-03T06:17:16;102051.94;;;9.95;63.50
18533;BME280;9396;51.510;11.934;2023-04-03T06:19:43;102055.69;;;9.80;63.21
18533;BME280;9396;51.510;11.934;2023-04-03T06:22:10;102055.16;;;10.36;62.09
18533;BME280;9396;51.510;11.934;2023-04-03T06:24:39;102056.88;;;9.76;65.17
18533;BME280;9396;51.510;11.934;2023-04-03T06:27:06;102060.88;;;8.40;65.75
18533;BME280;9396;51.510;11.934;2023-04-03T06:29:32;101924.72;;;7.88;65.31
18533;BME280;9396;51.510;11.934;2023-04-03T06:31:59;102079.84;;;7.92;66.08
18533;BME280;9396;51.510;11.934;2023-04-03T06:34:25;102076.16;;;6.49;71.23
18533;BME280;9396;51.510;11.934;2023-04-03T06:36:52;102079.97;;;7.63;71.44
18533;BME280;9396;51.510;11.934;2023-04-03T06:39:20;102063.53;;;8.67;67.04
18533;BME280;9396;51.510;11.934;2023-04-03T06:41:49;102059.06;;;10.07;65.82
18533;BME280;9396;51.510;11.934;2023-04-03T06:44:16;102070.13;;;10.14;63.83
18533;BME280;9396;51.510;11.934;2023-04-03T06:46:44;102070.56;;;10.44;62.53
18533;BME280;9396;51.510;11.934;2023-04-03T06:49:11;102084.00;;;9.04;63.68
18533;BME280;9396;51.510;11.934;2023-04-03T06:51:38;101993.19;;;8.35;66.17
18533;BME280;9396;51.510;11.934;2023-04-03T06:54:06;101949.47;;;7.46;67.08
18533;BME280;9396;51.510;11.934;2023-04-03T06:56:33;102078.59;;;8.67;65.48
18533;BME280;9396;51.510;11.934;2023-04-03T06:59:02;102090.03;;;8.40;66.79
18533;BME280;9396;51.510;11.934;2023-04-03T07:01:29;102096.50;;;8.36;67.10
18533;BME280;9396;51.510;11.934;2023-04-03T07:03:56;102100.69;;;7.98;67.96
18533;BME280;9396;51.510;11.934;2023-04-03T07:06:23;102104.94;;;6.54;71.20
18533;BME280;9396;51.510;11.934;2023-04-03T07:08:52;102109.53;;;6.04;71.80
18533;BME280;9396;51.510;11.934;2023-04-03T07:11:19;102108.41;;;5.75;74.42
18533;BME280;9396;51.510;11.934;2023-04-03T07:13:45;102104.72;;;5.62;75.28
18533;BME280;9396;51.510;11.934;2023-04-03T07:16:13;102121.72;;;5.39;74.97
18533;BME280;9396;51.510;11.934;2023-04-03T07:18:40;102112.41;;;5.84;74.85
18533;BME280;9396;51.510;11.934;2023-04-03T07:21:07;102111.00;;;5.77;74.12
18533;BME280;9396;51.510;11.934;2023-04-03T07:23:33;102113.28;;;6.00;74.57
18533;BME280;9396;51.510;11.934;2023-04-03T07:26:00;102111.34;;;6.50;72.59
18533;BME280;9396;51.510;11.934;2023-04-03T07:28:27;102116.69;;;6.64;72.19
18533;BME280;9396;51.510;11.934;2023-04-03T07:31:00;102110.06;;;7.32;72.12
18533;BME280;9396;51.510;11.934;2023-04-03T07:33:28;102106.28;;;7.22;70.45
18533;BME280;9396;51.510;11.934;2023-04-03T07:35:55;102106.88;;;6.04;73.36
18533;BME280;9396;51.510;11.934;2023-04-03T07:38:21;102117.91;;;6.74;72.12
18533;BME280;9396;51.510;11.934;2023-04-03T07:40:49;102110.34;;;6.98;73.93
18533;BME280;9396;51.510;11.934;2023-04-03T07:43:17;102116.56;;;7.26;70.81
18533;BME280;9396;51.510;11.934;2023-04-03T07:45:44;102118.53;;;6.64;73.04
18533;BME280;9396;51.510;11.934;2023-04-03T07:48:11;102124.38;;;6.69;72.31
18533;BME280;9396;51.510;11.934;2023-04-03T07:50:40;102129.16;;;5.83;72.63
18533;BME280;9396;51.510;11.934;2023-04-03T07:53:07;102128.31;;;5.65;75.29
18533;BME280;9396;51.510;11.934;2023-04-03T07:55:34;102120.50;;;5.29;75.69
18533;BME280;9396;51.510;11.934;2023-04-03T07:58:05;102134.63;;;5.11;78.27
18533;BME280;9396;51.510;11.934;2023-04-03T08:00:32;102129.72;;;5.38;76.56
18533;BME280;9396;51.510;11.934;2023-04-03T08:02:59;102126.41;;;5.52;76.60
18533;BME280;9396;51.510;11.934;2023-04-03T08:05:25;102129.81;;;5.36;74.62
18533;BME280;9396;51.510;11.934;2023-04-03T08:07:53;102130.97;;;5.14;75.38
18533;BME280;9396;51.510;11.934;2023-04-03T08:10:20;102130.22;;;4.76;75.55
18533;BME280;9396;51.510;11.934;2023-04-03T08:12:47;102133.00;;;4.38;75.11
18533;BME280;9396;51.510;11.934;2023-04-03T08:15:13;102134.44;;;3.87;76.66
18533;BME280;9396;51.510;11.934;2023-04-03T08:17:41;102160.72;;;3.69;78.59
18533;BME280;9396;51.510;11.934;2023-04-03T08:20:09;102148.34;;;4.09;77.06
18533;BME280;9396;51.510;11.934;2023-04-03T08:22:37;102134.75;;;4.56;78.26
18533;BME280;9396;51.510;11.934;2023-04-03T08:25:05;102117.88;;;5.29;75.63
18533;BME280;9396;51.510;11.934;2023-04-03T08:27:32;102116.50;;;5.72;75.10
18533;BME280;9396;51.510;11.934;2023-04-03T08:29:58;102127.25;;;6.02;75.68
18533;BME280;9396;51.510;11.934;2023-04-03T08:32:25;102123.53;;;6.21;72.95
18533;BME280;9396;51.510;11.934;2023-04-03T08:34:52;101995.44;;;5.97;71.46
18533;BME280;9396;51.510;11.934;2023-04-03T08:37:19;102124.47;;;5.55;70.99
18533;BME280;9396;51.510;11.934;2023-04-03T08:39:46;102123.69;;;5.53;70.80
18533;BME280;9396;51.510;11.934;2023-04-03T08:42:19;102127.44;;;5.32;72.08
18533;BME280;9396;51.510;11.934;2023-04-03T08:44:57;102124.88;;;5.80;74.34
18533;BME280;9396;51.510;11.934;2023-04-03T08:47:30;102125.34;;;5.88;72.78
18533;BME280;9396;51.510;11.934;2023-04-03T08:50:03;102121.03;;;6.03;73.59
18533;BME280;9396;51.510;11.934;2023-04-03T08:52:35;102131.00;;;5.48;71.74
18533;BME280;9396;51.510;11.934;2023-04-03T08:55:05;102133.78;;;5.28;71.63
18533;BME280;9396;51.510;11.934;2023-04-03T08:57:38;102128.88;;;5.20;73.56
18533;BME280;9396;51.510;11.934;2023-04-03T09:00:13;102132.69;;;5.49;70.92
18533;BME280;9396;51.510;11.934;2023-04-03T09:02:44;102136.59;;;5.25;71.50
18533;BME280;9396;51.510;11.934;2023-04-03T09:05:13;102139.66;;;5.50;73.37
18533;BME280;9396;51.510;11.934;2023-04-03T09:07:44;102139.06;;;5.28;71.96
18533;BME280;9396;51.510;11.934;2023-04-03T09:10:14;102145.69;;;5.01;71.96
18533;BME280;9396;51.510;11.934;2023-04-03T09:12:45;102136.84;;;4.85;71.09
18533;BME280;9396;51.510;11.934;2023-04-03T09:15:18;102131.53;;;5.03;71.02
18533;BME280;9396;51.510;11.934;2023-04-03T09:18:00;102129.78;;;5.54;70.99
18533;BME280;9396;51.510;11.934;2023-04-03T09:20:37;102136.41;;;5.28;70.76
18533;BME280;9396;51.510;11.934;2023-04-03T09:23:14;102136.38;;;5.11;68.62
18533;BME280;9396;51.510;11.934;2023-04-03T09:25:43;102064.72;;;4.69;71.10
18533;BME280;9396;51.510;11.934;2023-04-03T09:28:11;102134.25;;;5.19;70.70
18533;BME280;9396;51.510;11.934;2023-04-03T09:30:38;102133.69;;;5.46;69.55
18533;BME280;9396;51.510;11.934;2023-04-03T09:33:04;102131.81;;;5.83;69.29
18533;BME280;9396;51.510;11.934;2023-04-03T09:35:34;102126.53;;;5.48;66.84
18533;BME280;9396;51.510;11.934;2023-04-03T09:38:13;102138.56;;;5.20;68.30
18533;BME280;9396;51.510;11.934;2023-04-03T09:40:42;102143.19;;;5.66;68.75
18533;BME280;9396;51.510;11.934;2023-04-03T09:43:28;102139.03;;;5.45;69.34
18533;BME280;9396;51.510;11.934;2023-04-03T09:45:56;102131.69;;;5.17;70.16
18533;BME280;9396;51.510;11.934;2023-04-03T09:48:50;102134.81;;;4.90;69.68
18533;BME280;9396;51.510;11.934;2023-04-03T09:51:17;102129.91;;;5.18;70.79
18533;BME280;9396;51.510;11.934;2023-04-03T09:53:44;102139.47;;;4.85;71.42
18533;BME280;9396;51.510;11.934;2023-04-03T09:56:21;102116.63;;;5.02;71.25
18533;BME280;9396;51.510;11.934;2023-04-03T09:58:50;102130.06;;;5.32;72.22
18533;BME280;9396;51.510;11.934;2023-04-03T10:01:24;102127.03;;;5.05;69.71
18533;BME280;9396;51.510;11.934;2023-04-03T10:04:07;102120.88;;;5.22;69.52
18533;BME280;9396;51.510;11.934;2023-04-03T10:06:36;102118.88;;;5.44;68.42
18533;BME280;9396;51.510;11.934;2023-04-03T10:09:14;102110.66;;;5.33;67.62
18533;BME280;9396;51.510;11.934;2023-04-03T10:11:57;102115.84;;;5.52;67.55
18533;BME280;9396;51.510;11.934;2023-04-03T10:14:29;102117.41;;;5.21;66.63
18533;BME280;9396;51.510;11.934;2023-04-03T10:17:02;102110.03;;;5.28;68.52
18533;BME280;9396;51.510;11.934;2023-04-03T10:19:35;102096.13;;;5.59;67.74
18533;BME280;9396;51.510;11.934;2023-04-03T10:22:09;102100.81;;;5.86;68.28
18533;BME280;9396;51.510;11.934;2023-04-03T10:24:47;102091.13;;;6.18;68.33
18533;BME280;9396;51.510;11.934;2023-04-03T10:27:19;102091.50;;;6.27;67.72
18533;BME280;9396;51.510;11.934;2023-04-03T10:29:56;102097.28;;;6.34;69.00
18533;BME280;9396;51.510;11.934;2023-04-03T10:32:44;101974.03;;;5.71;67.98
18533;BME280;9396;51.510;11.934;2023-04-03T10:35:18;102094.47;;;6.53;67.15
18533;BME280;9396;51.510;11.934;2023-04-03T10:37:56;102096.59;;;6.30;67.23
18533;BME280;9396;51.510;11.934;2023-04-03T10:40:33;102105.91;;;5.89;68.61
18533;BME280;9396;51.510;11.934;2023-04-03T10:43:06;102108.25;;;5.78;69.23
18533;BME280;9396;51.510;11.934;2023-04-03T10:45:49;102095.75;;;5.82;68.02
18533;BME280;9396;51.510;11.934;2023-04-03T10:48:28;102098.00;;;5.89;69.48
18533;BME280;9396;51.510;11.934;2023-04-03T10:51:03;102086.88;;;6.15;66.63
18533;BME280;9396;51.510;11.934;2023-04-03T10:53:39;102097.63;;;5.63;66.08
18533;BME280;9396;51.510;11.934;2023-04-03T10:56:12;102091.75;;;5.58;64.74
18533;BME280;9396;51.510;11.934;2023-04-03T10:58:44;102094.66;;;5.36;67.09
18533;BME280;9396;51.510;11.934;2023-04-03T11:01:14;102093.66;;;5.38;67.02
18533;BME280;9396;51.510;11.934;2023-04-03T11:03:46;102090.31;;;5.35;67.17
18533;BME280;9396;51.510;11.934;2023-04-03T11:06:16;102085.13;;;5.16;66.43
18533;BME280;9396;51.510;11.934;2023-04-03T11:08:45;102068.88;;;5.58;67.55
18533;BME280;9396;51.510;11.934;2023-04-03T11:11:15;102072.44;;;5.57;66.26
18533;BME280;9396;51.510;11.934;2023-04-03T11:13:47;102065.91;;;5.97;65.79
18533;BME280;9396;51.510;11.934;2023-04-03T11:16:21;102062.00;;;6.19;64.74
18533;BME280;9396;51.510;11.934;2023-04-03T11:18:52;102064.63;;;6.50;65.21
18533;BME280;9396;51.510;11.934;2023-04-03T11:21:26;102057.63;;;6.34;65.33
18533;BME280;9396;51.510;11.934;2023-04-03T11:23:57;102064.44;;;5.91;65.48
18533;BME280;9396;51.510;11.934;2023-04-03T11:26:27;102059.25;;;6.05;65.23
18533;BME280;9396;51.510;11.934;2023-04-03T11:28:58;102065.38;;;5.90;65.43
18533;BME280;9396;51.510;11.934;2023-04-03T11:31:38;102060.44;;;5.84;65.05
18533;BME280;9396;51.510;11.934;2023-04-03T11:34:19;102063.34;;;6.11;65.86
18533;BME280;9396;51.510;11.934;2023-04-03T11:36:53;102071.22;;;5.47;65.42
18533;BME280;9396;51.510;11.934;2023-04-03T11:39:24;102060.34;;;5.53;65.38
18533;BME280;9396;51.510;11.934;2023-04-03T11:41:52;102061.38;;;5.66;65.46
18533;BME280;9396;51.510;11.934;2023-04-03T11:44:34;102055.59;;;5.75;63.92
18533;BME280;9396;51.510;11.934;2023-04-03T11:47:09;102057.94;;;5.81;64.22
18533;BME280;9396;51.510;11.934;2023-04-03T11:49:57;102053.72;;;5.94;65.66
18533;BME280;9396;51.510;11.934;2023-04-03T11:52:58;102052.66;;;5.81;65.70
18533;BME280;9396;51.510;11.934;2023-04-03T11:55:56;102061.03;;;5.57;65.74
18533;BME280;9396;51.510;11.934;2023-04-03T11:58:24;102051.16;;;5.60;65.27
18533;BME280;9396;51.510;11.934;2023-04-03T12:01:02;102046.78;;;5.76;65.98
18533;BME280;9396;51.510;11.934;2023-04-03T12:12:29;102027.66;;;6.04;65.31
18533;BME280;9396;51.510;11.934;2023-04-03T12:15:22;102030.59;;;6.44;65.67
18533;BME280;9396;51.510;11.934;2023-04-03T12:17:49;102028.56;;;6.49;64.58
18533;BME280;9396;51.510;11.934;2023-04-03T12:20:56;102031.41;;;6.15;64.24
18533;BME280;9396;51.510;11.934;2023-04-03T12:23:25;102027.34;;;5.77;62.95
18533;BME280;9396;51.510;11.934;2023-04-03T12:26:00;102017.84;;;6.06;63.58
18533;BME280;9396;51.510;11.934;2023-04-03T12:28:28;102021.59;;;6.33;65.31
18533;BME280;9396;51.510;11.934;2023-04-03T12:30:56;102023.41;;;6.01;64.80
18533;BME280;9396;51.510;11.934;2023-04-03T12:33:28;102021.25;;;6.39;64.65
18533;BME280;9396;51.510;11.934;2023-04-03T12:36:06;102014.69;;;6.46;64.88
18533;BME280;9396;51.510;11.934;2023-04-03T12:38:48;102019.06;;;6.61;64.07
18533;BME280;9396;51.510;11.934;2023-04-03T12:41:21;102017.44;;;5.98;62.00
18533;BME280;9396;51.510;11.934;2023-04-03T12:44:01;102014.09;;;6.10;63.57
18533;BME280;9396;51.510;11.934;2023-04-03T12:46:36;101997.13;;;5.98;63.20
18533;BME280;9396;51.510;11.934;2023-04-03T12:49:18;102007.09;;;6.09;63.35
18533;BME280;9396;51.510;11.934;2023-04-03T12:51:50;102006.91;;;5.81;62.55
18533;BME280;9396;51.510;11.934;2023-04-03T12:54:20;101947.56;;;5.57;61.64
18533;BME280;9396;51.510;11.934;2023-04-03T12:56:49;102005.81;;;6.16;62.84
18533;BME280;9396;51.510;11.934;2023-04-03T12:59:18;102003.00;;;6.34;62.85
18533;BME280;9396;51.510;11.934;2023-04-03T13:01:53;101999.50;;;6.34;63.18
18533;BME280;9396;51.510;11.934;2023-04-03T13:04:20;102005.56;;;6.36;65.35
18533;BME280;9396;51.510;11.934;2023-04-03T13:06:48;101996.56;;;6.54;64.26
18533;BME280;9396;51.510;11.934;2023-04-03T13:09:21;102003.06;;;6.48;64.08
18533;BME280;9396;51.510;11.934;2023-04-03T13:11:49;102000.19;;;6.37;64.54
18533;BME280;9396;51.510;11.934;2023-04-03T13:14:18;102002.81;;;6.37;64.35
18533;BME280;9396;51.510;11.934;2023-04-03T13:16:53;101999.34;;;6.21;62.80
18533;BME280;9396;51.510;11.934;2023-04-03T13:19:20;102007.38;;;6.04;64.52
18533;BME280;9396;51.510;11.934;2023-04-03T13:21:49;102004.91;;;6.01;65.42
18533;BME280;9396;51.510;11.934;2023-04-03T13:24:21;102002.44;;;5.98;67.34